Harmony, Florida
Current Conditions -  °F | °C
As of 9:53 PM on Saturday 25 Oct 2014 (Local Time) from KMLB Reporting Station
Clear Clear  
Wind Chill: 69°   Ceiling: Unl
Heat Index: 69°   Visibility: 10mi
Dew Point: 61°   Wind: 6mph
Humidity: 75%   Direction: 340°NNW
Pressure: 29.98"   Gusts: NA
Location:  28.1263°N, 80.9811°W
Report Text: KMLB 260153Z 34005KT 10SM CLR 21/16 A2998 RMK AO2 SLP150 T02060161
Loading
Personal Weather Stations






























Interactive Weather Map
Tropical Storm Tracking
New forecast layout! Learn more

10-Day Weather Forecast

Advertisements
Track Severe Weather on mobile